sensor_id;sensor_type;location;lat;lon;timestamp;P1;durP1;ratioP1;P2;durP2;ratioP2
75207;SDS011;63795;55.684;37.864;2023-03-24T00:04:30;9.75;;;5.05;;
75207;SDS011;63795;55.684;37.864;2023-03-24T00:09:30;11.15;;;6.90;;
75207;SDS011;63795;55.684;37.864;2023-03-24T00:14:31;11.20;;;7.00;;
75207;SDS011;63795;55.684;37.864;2023-03-24T00:19:31;9.93;;;7.50;;
75207;SDS011;63795;55.684;37.864;2023-03-24T00:24:33;20.20;;;11.32;;
75207;SDS011;63795;55.684;37.864;2023-03-24T00:29:34;10.63;;;5.93;;
75207;SDS011;63795;55.684;37.864;2023-03-24T00:34:35;11.48;;;7.13;;
75207;SDS011;63795;55.684;37.864;2023-03-24T00:39:37;16.08;;;6.43;;
75207;SDS011;63795;55.684;37.864;2023-03-24T00:44:40;7.65;;;5.82;;
75207;SDS011;63795;55.684;37.864;2023-03-24T00:49:43;10.68;;;4.07;;
75207;SDS011;63795;55.684;37.864;2023-03-24T00:54:44;15.80;;;10.38;;
75207;SDS011;63795;55.684;37.864;2023-03-24T00:59:45;12.02;;;6.25;;
75207;SDS011;63795;55.684;37.864;2023-03-24T01:04:51;15.35;;;9.95;;
75207;SDS011;63795;55.684;37.864;2023-03-24T01:09:55;11.68;;;8.38;;
75207;SDS011;63795;55.684;37.864;2023-03-24T01:15:00;10.45;;;7.68;;
75207;SDS011;63795;55.684;37.864;2023-03-24T01:20:04;9.48;;;6.15;;
75207;SDS011;63795;55.684;37.864;2023-03-24T01:25:11;10.77;;;6.25;;
75207;SDS011;63795;55.684;37.864;2023-03-24T01:30:17;12.55;;;8.15;;
75207;SDS011;63795;55.684;37.864;2023-03-24T01:35:23;9.10;;;6.82;;
75207;SDS011;63795;55.684;37.864;2023-03-24T01:40:28;12.00;;;5.38;;
75207;SDS011;63795;55.684;37.864;2023-03-24T01:56:06;11.68;;;7.55;;
75207;SDS011;63795;55.684;37.864;2023-03-24T02:01:07;10.45;;;6.25;;
75207;SDS011;63795;55.684;37.864;2023-03-24T02:06:09;9.23;;;4.43;;
75207;SDS011;63795;55.684;37.864;2023-03-24T02:11:12;8.75;;;7.38;;
75207;SDS011;63795;55.684;37.864;2023-03-24T02:21:58;10.13;;;7.20;;
75207;SDS011;63795;55.684;37.864;2023-03-24T02:43:16;12.60;;;7.38;;
75207;SDS011;63795;55.684;37.864;2023-03-24T02:48:36;10.63;;;6.20;;
75207;SDS011;63795;55.684;37.864;2023-03-24T02:53:51;8.90;;;5.43;;
75207;SDS011;63795;55.684;37.864;2023-03-24T02:59:02;13.98;;;8.85;;
75207;SDS011;63795;55.684;37.864;2023-03-24T03:09:16;10.75;;;6.97;;
75207;SDS011;63795;55.684;37.864;2023-03-24T03:24:41;10.88;;;6.93;;
75207;SDS011;63795;55.684;37.864;2023-03-24T03:29:51;13.70;;;9.30;;
75207;SDS011;63795;55.684;37.864;2023-03-24T03:40:30;15.38;;;8.73;;
75207;SDS011;63795;55.684;37.864;2023-03-24T03:45:35;12.73;;;7.90;;
75207;SDS011;63795;55.684;37.864;2023-03-24T03:50:36;16.02;;;9.07;;
75207;SDS011;63795;55.684;37.864;2023-03-24T03:55:38;17.50;;;10.13;;
75207;SDS011;63795;55.684;37.864;2023-03-24T04:00:40;10.90;;;6.93;;
75207;SDS011;63795;55.684;37.864;2023-03-24T04:27:10;9.00;;;5.65;;
75207;SDS011;63795;55.684;37.864;2023-03-24T04:37:21;13.65;;;8.88;;
75207;SDS011;63795;55.684;37.864;2023-03-24T04:42:26;17.63;;;10.55;;
75207;SDS011;63795;55.684;37.864;2023-03-24T04:47:34;19.50;;;11.52;;
75207;SDS011;63795;55.684;37.864;2023-03-24T04:52:42;17.10;;;8.95;;
75207;SDS011;63795;55.684;37.864;2023-03-24T04:57:42;13.52;;;8.32;;
75207;SDS011;63795;55.684;37.864;2023-03-24T05:02:43;18.17;;;9.63;;
75207;SDS011;63795;55.684;37.864;2023-03-24T05:07:44;20.02;;;10.70;;
75207;SDS011;63795;55.684;37.864;2023-03-24T05:12:44;16.67;;;8.13;;
75207;SDS011;63795;55.684;37.864;2023-03-24T05:17:45;18.52;;;11.07;;
75207;SDS011;63795;55.684;37.864;2023-03-24T05:22:45;17.50;;;10.02;;
75207;SDS011;63795;55.684;37.864;2023-03-24T05:27:46;27.03;;;16.33;;
75207;SDS011;63795;55.684;37.864;2023-03-24T05:32:47;23.10;;;13.60;;
75207;SDS011;63795;55.684;37.864;2023-03-24T05:37:47;26.23;;;18.23;;
75207;SDS011;63795;55.684;37.864;2023-03-24T05:42:48;16.27;;;11.32;;
75207;SDS011;63795;55.684;37.864;2023-03-24T05:47:50;18.70;;;11.63;;
75207;SDS011;63795;55.684;37.864;2023-03-24T05:52:50;23.67;;;14.00;;
75207;SDS011;63795;55.684;37.864;2023-03-24T05:57:51;19.35;;;10.90;;
75207;SDS011;63795;55.684;37.864;2023-03-24T06:02:53;20.05;;;10.43;;
75207;SDS011;63795;55.684;37.864;2023-03-24T06:07:53;25.27;;;13.98;;
75207;SDS011;63795;55.684;37.864;2023-03-24T06:12:57;17.02;;;10.60;;
75207;SDS011;63795;55.684;37.864;2023-03-24T06:17:58;27.48;;;17.65;;
75207;SDS011;63795;55.684;37.864;2023-03-24T06:23:21;21.08;;;13.25;;
75207;SDS011;63795;55.684;37.864;2023-03-24T06:28:24;13.70;;;10.43;;
75207;SDS011;63795;55.684;37.864;2023-03-24T06:33:29;22.85;;;14.02;;
75207;SDS011;63795;55.684;37.864;2023-03-24T06:38:29;15.75;;;9.95;;
75207;SDS011;63795;55.684;37.864;2023-03-24T06:43:30;17.33;;;9.33;;
75207;SDS011;63795;55.684;37.864;2023-03-24T06:48:31;12.15;;;7.25;;
75207;SDS011;63795;55.684;37.864;2023-03-24T06:53:32;27.15;;;15.68;;
75207;SDS011;63795;55.684;37.864;2023-03-24T06:58:33;17.38;;;9.27;;
75207;SDS011;63795;55.684;37.864;2023-03-24T07:03:34;23.05;;;14.95;;
75207;SDS011;63795;55.684;37.864;2023-03-24T07:08:35;21.95;;;11.85;;
75207;SDS011;63795;55.684;37.864;2023-03-24T07:13:36;17.27;;;10.32;;
75207;SDS011;63795;55.684;37.864;2023-03-24T07:18:37;21.25;;;12.80;;
75207;SDS011;63795;55.684;37.864;2023-03-24T07:23:37;19.77;;;13.07;;
75207;SDS011;63795;55.684;37.864;2023-03-24T07:28:38;21.17;;;13.67;;
75207;SDS011;63795;55.684;37.864;2023-03-24T07:33:38;16.63;;;10.07;;
75207;SDS011;63795;55.684;37.864;2023-03-24T07:38:39;20.77;;;12.70;;
75207;SDS011;63795;55.684;37.864;2023-03-24T07:43:39;17.85;;;9.43;;
75207;SDS011;63795;55.684;37.864;2023-03-24T07:48:40;20.00;;;14.15;;
75207;SDS011;63795;55.684;37.864;2023-03-24T07:53:41;20.70;;;12.85;;
75207;SDS011;63795;55.684;37.864;2023-03-24T07:58:44;22.75;;;13.57;;
75207;SDS011;63795;55.684;37.864;2023-03-24T08:03:46;21.55;;;12.98;;
75207;SDS011;63795;55.684;37.864;2023-03-24T08:08:48;23.25;;;12.82;;
75207;SDS011;63795;55.684;37.864;2023-03-24T08:13:48;21.00;;;14.05;;
75207;SDS011;63795;55.684;37.864;2023-03-24T08:18:49;20.83;;;13.30;;
75207;SDS011;63795;55.684;37.864;2023-03-24T08:23:50;23.55;;;15.35;;
75207;SDS011;63795;55.684;37.864;2023-03-24T08:28:51;21.70;;;13.00;;
75207;SDS011;63795;55.684;37.864;2023-03-24T08:33:52;16.65;;;11.77;;
75207;SDS011;63795;55.684;37.864;2023-03-24T08:38:53;7.45;;;5.47;;
75207;SDS011;63795;55.684;37.864;2023-03-24T08:43:55;16.15;;;10.65;;
75207;SDS011;63795;55.684;37.864;2023-03-24T08:48:59;13.00;;;9.95;;
75207;SDS011;63795;55.684;37.864;2023-03-24T08:59:05;8.43;;;5.65;;
75207;SDS011;63795;55.684;37.864;2023-03-24T09:04:06;11.10;;;7.57;;
75207;SDS011;63795;55.684;37.864;2023-03-24T09:09:08;11.68;;;7.00;;
75207;SDS011;63795;55.684;37.864;2023-03-24T09:14:10;10.98;;;6.60;;
75207;SDS011;63795;55.684;37.864;2023-03-24T09:19:11;11.02;;;7.97;;
75207;SDS011;63795;55.684;37.864;2023-03-24T09:24:12;11.95;;;7.60;;
75207;SDS011;63795;55.684;37.864;2023-03-24T09:29:12;12.00;;;6.18;;
75207;SDS011;63795;55.684;37.864;2023-03-24T09:34:13;12.57;;;6.93;;
75207;SDS011;63795;55.684;37.864;2023-03-24T09:39:13;10.75;;;7.13;;
75207;SDS011;63795;55.684;37.864;2023-03-24T09:49:31;8.95;;;6.82;;
75207;SDS011;63795;55.684;37.864;2023-03-24T09:54:48;8.82;;;5.47;;
75207;SDS011;63795;55.684;37.864;2023-03-24T09:59:53;10.15;;;6.90;;
75207;SDS011;63795;55.684;37.864;2023-03-24T10:04:53;7.30;;;4.20;;
75207;SDS011;63795;55.684;37.864;2023-03-24T10:09:55;8.00;;;5.90;;
75207;SDS011;63795;55.684;37.864;2023-03-24T10:20:40;6.63;;;4.15;;
75207;SDS011;63795;55.684;37.864;2023-03-24T10:31:25;8.85;;;5.43;;
75207;SDS011;63795;55.684;37.864;2023-03-24T10:36:28;7.03;;;3.17;;
75207;SDS011;63795;55.684;37.864;2023-03-24T10:41:29;9.23;;;2.13;;
75207;SDS011;63795;55.684;37.864;2023-03-24T10:46:32;6.53;;;3.85;;
75207;SDS011;63795;55.684;37.864;2023-03-24T10:51:33;6.35;;;4.85;;
75207;SDS011;63795;55.684;37.864;2023-03-24T10:56:38;6.32;;;4.60;;
75207;SDS011;63795;55.684;37.864;2023-03-24T11:01:40;13.35;;;5.60;;
75207;SDS011;63795;55.684;37.864;2023-03-24T11:07:00;8.30;;;3.63;;
75207;SDS011;63795;55.684;37.864;2023-03-24T11:12:23;8.32;;;6.90;;
75207;SDS011;63795;55.684;37.864;2023-03-24T11:17:26;13.23;;;6.13;;
75207;SDS011;63795;55.684;37.864;2023-03-24T11:22:26;8.40;;;6.13;;
75207;SDS011;63795;55.684;37.864;2023-03-24T11:27:27;6.95;;;4.60;;
75207;SDS011;63795;55.684;37.864;2023-03-24T11:32:37;8.32;;;6.07;;
75207;SDS011;63795;55.684;37.864;2023-03-24T11:37:44;5.97;;;4.30;;
75207;SDS011;63795;55.684;37.864;2023-03-24T11:47:58;5.90;;;4.55;;
75207;SDS011;63795;55.684;37.864;2023-03-24T11:58:14;7.22;;;3.72;;
75207;SDS011;63795;55.684;37.864;2023-03-24T12:13:47;4.18;;;1.42;;
75207;SDS011;63795;55.684;37.864;2023-03-24T12:23:59;7.35;;;6.57;;
75207;SDS011;63795;55.684;37.864;2023-03-24T12:34:35;5.05;;;2.90;;
75207;SDS011;63795;55.684;37.864;2023-03-24T12:39:42;7.25;;;4.28;;
75207;SDS011;63795;55.684;37.864;2023-03-24T12:45:14;4.25;;;3.67;;
75207;SDS011;63795;55.684;37.864;2023-03-24T13:00:43;3.83;;;1.42;;
75207;SDS011;63795;55.684;37.864;2023-03-24T13:11:26;6.13;;;3.53;;
75207;SDS011;63795;55.684;37.864;2023-03-24T13:16:34;6.03;;;4.20;;
75207;SDS011;63795;55.684;37.864;2023-03-24T13:21:37;4.28;;;3.53;;
75207;SDS011;63795;55.684;37.864;2023-03-24T13:26:38;5.77;;;3.97;;
75207;SDS011;63795;55.684;37.864;2023-03-24T13:36:50;5.65;;;3.25;;
75207;SDS011;63795;55.684;37.864;2023-03-24T13:41:58;4.15;;;3.75;;
75207;SDS011;63795;55.684;37.864;2023-03-24T13:47:02;4.53;;;3.47;;
75207;SDS011;63795;55.684;37.864;2023-03-24T13:58:04;7.40;;;3.55;;
75207;SDS011;63795;55.684;37.864;2023-03-24T14:03:14;5.38;;;2.67;;
75207;SDS011;63795;55.684;37.864;2023-03-24T14:08:39;4.78;;;2.63;;
75207;SDS011;63795;55.684;37.864;2023-03-24T14:13:45;6.63;;;1.95;;
75207;SDS011;63795;55.684;37.864;2023-03-24T14:18:46;2.90;;;1.60;;
75207;SDS011;63795;55.684;37.864;2023-03-24T14:23:47;4.55;;;4.20;;
75207;SDS011;63795;55.684;37.864;2023-03-24T14:28:51;4.78;;;3.08;;
75207;SDS011;63795;55.684;37.864;2023-03-24T14:38:53;4.43;;;1.97;;
75207;SDS011;63795;55.684;37.864;2023-03-24T14:43:55;4.85;;;3.55;;
75207;SDS011;63795;55.684;37.864;2023-03-24T14:49:01;5.38;;;2.90;;
75207;SDS011;63795;55.684;37.864;2023-03-24T14:54:13;4.22;;;0.85;;
75207;SDS011;63795;55.684;37.864;2023-03-24T15:04:22;3.58;;;2.58;;
75207;SDS011;63795;55.684;37.864;2023-03-24T15:09:25;3.67;;;3.03;;
75207;SDS011;63795;55.684;37.864;2023-03-24T15:14:25;2.75;;;1.35;;
75207;SDS011;63795;55.684;37.864;2023-03-24T15:19:28;4.75;;;1.60;;
75207;SDS011;63795;55.684;37.864;2023-03-24T15:29:36;4.05;;;1.70;;
75207;SDS011;63795;55.684;37.864;2023-03-24T15:34:39;3.15;;;2.35;;
75207;SDS011;63795;55.684;37.864;2023-03-24T15:39:40;3.85;;;1.92;;
75207;SDS011;63795;55.684;37.864;2023-03-24T15:44:41;4.13;;;1.83;;
75207;SDS011;63795;55.684;37.864;2023-03-24T15:49:47;4.75;;;2.20;;
75207;SDS011;63795;55.684;37.864;2023-03-24T15:54:51;2.28;;;0.90;;
75207;SDS011;63795;55.684;37.864;2023-03-24T16:05:20;3.50;;;2.00;;
75207;SDS011;63795;55.684;37.864;2023-03-24T16:10:27;3.90;;;1.75;;
75207;SDS011;63795;55.684;37.864;2023-03-24T16:15:33;2.08;;;1.38;;
75207;SDS011;63795;55.684;37.864;2023-03-24T16:20:33;1.33;;;0.40;;
75207;SDS011;63795;55.684;37.864;2023-03-24T16:25:33;2.97;;;2.07;;
75207;SDS011;63795;55.684;37.864;2023-03-24T16:30:38;3.60;;;1.85;;
75207;SDS011;63795;55.684;37.864;2023-03-24T16:35:40;4.63;;;1.48;;
75207;SDS011;63795;55.684;37.864;2023-03-24T16:40:48;5.28;;;2.47;;
75207;SDS011;63795;55.684;37.864;2023-03-24T16:45:53;3.65;;;1.15;;
75207;SDS011;63795;55.684;37.864;2023-03-24T16:50:54;5.22;;;2.35;;
75207;SDS011;63795;55.684;37.864;2023-03-24T16:55:55;4.80;;;3.40;;
75207;SDS011;63795;55.684;37.864;2023-03-24T17:00:55;3.13;;;1.93;;
75207;SDS011;63795;55.684;37.864;2023-03-24T17:05:57;2.65;;;2.15;;
75207;SDS011;63795;55.684;37.864;2023-03-24T17:10:58;2.22;;;1.92;;
75207;SDS011;63795;55.684;37.864;2023-03-24T17:15:58;4.00;;;1.65;;
75207;SDS011;63795;55.684;37.864;2023-03-24T17:20:59;5.13;;;1.77;;
75207;SDS011;63795;55.684;37.864;2023-03-24T17:26:00;6.07;;;1.67;;
75207;SDS011;63795;55.684;37.864;2023-03-24T17:31:01;4.53;;;2.15;;
75207;SDS011;63795;55.684;37.864;2023-03-24T17:36:01;3.80;;;2.17;;
75207;SDS011;63795;55.684;37.864;2023-03-24T17:41:02;3.95;;;2.50;;
75207;SDS011;63795;55.684;37.864;2023-03-24T17:46:03;3.80;;;1.67;;
75207;SDS011;63795;55.684;37.864;2023-03-24T17:51:04;4.00;;;2.15;;
75207;SDS011;63795;55.684;37.864;2023-03-24T17:56:05;2.75;;;1.58;;
75207;SDS011;63795;55.684;37.864;2023-03-24T18:01:06;4.00;;;1.50;;
75207;SDS011;63795;55.684;37.864;2023-03-24T18:06:07;4.97;;;2.63;;
75207;SDS011;63795;55.684;37.864;2023-03-24T18:11:11;4.55;;;1.50;;
75207;SDS011;63795;55.684;37.864;2023-03-24T18:16:13;4.30;;;1.52;;
75207;SDS011;63795;55.684;37.864;2023-03-24T18:21:16;3.15;;;1.80;;
75207;SDS011;63795;55.684;37.864;2023-03-24T18:26:17;6.82;;;1.58;;
75207;SDS011;63795;55.684;37.864;2023-03-24T18:31:20;4.45;;;2.03;;
75207;SDS011;63795;55.684;37.864;2023-03-24T18:36:23;4.70;;;1.52;;
75207;SDS011;63795;55.684;37.864;2023-03-24T18:41:28;5.30;;;3.40;;
75207;SDS011;63795;55.684;37.864;2023-03-24T18:46:29;5.28;;;2.70;;
75207;SDS011;63795;55.684;37.864;2023-03-24T18:51:30;7.53;;;3.95;;
75207;SDS011;63795;55.684;37.864;2023-03-24T18:56:32;5.22;;;2.78;;
75207;SDS011;63795;55.684;37.864;2023-03-24T19:01:32;6.13;;;3.33;;
75207;SDS011;63795;55.684;37.864;2023-03-24T19:06:34;5.43;;;2.30;;
75207;SDS011;63795;55.684;37.864;2023-03-24T19:11:38;3.60;;;2.33;;
75207;SDS011;63795;55.684;37.864;2023-03-24T19:16:38;4.68;;;2.92;;
75207;SDS011;63795;55.684;37.864;2023-03-24T19:21:39;3.25;;;1.45;;
75207;SDS011;63795;55.684;37.864;2023-03-24T19:26:40;6.30;;;2.95;;
75207;SDS011;63795;55.684;37.864;2023-03-24T19:31:41;5.32;;;3.17;;
75207;SDS011;63795;55.684;37.864;2023-03-24T19:36:41;5.63;;;2.90;;
75207;SDS011;63795;55.684;37.864;2023-03-24T19:41:43;5.95;;;3.60;;
75207;SDS011;63795;55.684;37.864;2023-03-24T19:46:44;5.65;;;3.03;;
75207;SDS011;63795;55.684;37.864;2023-03-24T19:51:44;4.40;;;2.35;;
75207;SDS011;63795;55.684;37.864;2023-03-24T19:56:46;4.78;;;4.38;;
75207;SDS011;63795;55.684;37.864;2023-03-24T20:01:46;6.60;;;3.13;;
75207;SDS011;63795;55.684;37.864;2023-03-24T20:06:47;7.77;;;3.20;;
75207;SDS011;63795;55.684;37.864;2023-03-24T20:11:47;8.93;;;4.50;;
75207;SDS011;63795;55.684;37.864;2023-03-24T20:16:51;8.55;;;4.60;;
75207;SDS011;63795;55.684;37.864;2023-03-24T20:21:51;8.65;;;4.95;;
75207;SDS011;63795;55.684;37.864;2023-03-24T20:26:52;8.30;;;3.83;;
75207;SDS011;63795;55.684;37.864;2023-03-24T20:31:52;7.57;;;5.17;;
75207;SDS011;63795;55.684;37.864;2023-03-24T20:36:53;7.70;;;3.30;;
75207;SDS011;63795;55.684;37.864;2023-03-24T20:41:53;10.63;;;4.80;;
75207;SDS011;63795;55.684;37.864;2023-03-24T20:46:54;9.18;;;4.40;;
75207;SDS011;63795;55.684;37.864;2023-03-24T20:51:56;6.57;;;3.83;;
75207;SDS011;63795;55.684;37.864;2023-03-24T20:56:56;7.53;;;5.77;;
75207;SDS011;63795;55.684;37.864;2023-03-24T21:01:57;12.45;;;4.75;;
75207;SDS011;63795;55.684;37.864;2023-03-24T21:07:00;13.00;;;6.63;;
75207;SDS011;63795;55.684;37.864;2023-03-24T21:12:01;13.97;;;5.37;;
75207;SDS011;63795;55.684;37.864;2023-03-24T21:17:02;9.23;;;7.05;;
75207;SDS011;63795;55.684;37.864;2023-03-24T21:22:03;8.60;;;7.35;;
75207;SDS011;63795;55.684;37.864;2023-03-24T21:27:03;9.02;;;4.93;;
75207;SDS011;63795;55.684;37.864;2023-03-24T21:32:04;10.13;;;6.15;;
75207;SDS011;63795;55.684;37.864;2023-03-24T21:37:05;10.15;;;6.35;;
75207;SDS011;63795;55.684;37.864;2023-03-24T21:42:05;12.20;;;7.10;;
75207;SDS011;63795;55.684;37.864;2023-03-24T21:47:06;9.48;;;7.72;;
75207;SDS011;63795;55.684;37.864;2023-03-24T21:52:07;9.38;;;5.60;;
75207;SDS011;63795;55.684;37.864;2023-03-24T21:57:08;12.43;;;4.88;;
75207;SDS011;63795;55.684;37.864;2023-03-24T22:02:11;7.13;;;4.93;;
75207;SDS011;63795;55.684;37.864;2023-03-24T22:07:19;6.47;;;3.72;;
75207;SDS011;63795;55.684;37.864;2023-03-24T22:12:21;6.70;;;2.67;;
75207;SDS011;63795;55.684;37.864;2023-03-24T22:17:22;8.25;;;4.35;;
75207;SDS011;63795;55.684;37.864;2023-03-24T22:22:22;4.65;;;3.13;;
75207;SDS011;63795;55.684;37.864;2023-03-24T22:27:23;8.27;;;4.27;;
75207;SDS011;63795;55.684;37.864;2023-03-24T22:32:23;7.55;;;3.63;;
75207;SDS011;63795;55.684;37.864;2023-03-24T22:37:24;11.02;;;4.50;;
75207;SDS011;63795;55.684;37.864;2023-03-24T22:42:25;11.88;;;4.57;;
75207;SDS011;63795;55.684;37.864;2023-03-24T22:47:25;5.30;;;3.03;;
75207;SDS011;63795;55.684;37.864;2023-03-24T22:52:27;7.55;;;4.15;;
75207;SDS011;63795;55.684;37.864;2023-03-24T22:57:28;8.45;;;4.32;;
75207;SDS011;63795;55.684;37.864;2023-03-24T23:02:28;6.40;;;4.07;;
75207;SDS011;63795;55.684;37.864;2023-03-24T23:07:29;8.20;;;5.03;;
75207;SDS011;63795;55.684;37.864;2023-03-24T23:12:30;8.57;;;6.77;;
75207;SDS011;63795;55.684;37.864;2023-03-24T23:17:30;8.90;;;4.95;;
75207;SDS011;63795;55.684;37.864;2023-03-24T23:22:30;8.95;;;5.55;;
75207;SDS011;63795;55.684;37.864;2023-03-24T23:27:32;8.52;;;6.40;;
75207;SDS011;63795;55.684;37.864;2023-03-24T23:32:36;8.15;;;5.72;;
75207;SDS011;63795;55.684;37.864;2023-03-24T23:37:38;14.40;;;5.00;;
75207;SDS011;63795;55.684;37.864;2023-03-24T23:42:42;7.25;;;5.38;;
75207;SDS011;63795;55.684;37.864;2023-03-24T23:47:46;11.38;;;6.05;;
75207;SDS011;63795;55.684;37.864;2023-03-24T23:52:48;4.60;;;3.33;;
75207;SDS011;63795;55.684;37.864;2023-03-24T23:57:49;7.65;;;4.80;;
